createdAt,value
2022-08-22T00:01:21.288Z,2.70
2022-08-22T00:02:49.564Z,2.25
2022-08-22T00:04:21.758Z,2.60
2022-08-22T00:06:49.262Z,2.83
2022-08-22T00:09:29.748Z,2.85
2022-08-22T00:12:13.403Z,2.97
2022-08-22T00:14:43.658Z,2.67
2022-08-22T00:17:38.213Z,3.40
2022-08-22T00:20:28.109Z,2.58
2022-08-22T00:23:27.736Z,2.45
2022-08-22T00:26:06.339Z,2.95
2022-08-22T00:28:50.355Z,2.38
2022-08-22T00:31:36.551Z,2.65
2022-08-22T00:34:30.240Z,2.70
2022-08-22T00:37:12.189Z,2.65
2022-08-22T00:40:17.481Z,2.58
2022-08-22T00:43:07.378Z,2.75
2022-08-22T00:45:49.077Z,2.88
2022-08-22T00:48:48.536Z,2.80
2022-08-22T00:51:43.439Z,2.70
2022-08-22T00:54:49.615Z,3.05
2022-08-22T00:57:45.234Z,2.92
2022-08-22T01:00:22.854Z,2.80
2022-08-22T01:03:14.119Z,2.92
2022-08-22T01:06:10.599Z,2.95
2022-08-22T01:08:46.319Z,3.60
2022-08-22T01:11:22.791Z,3.08
2022-08-22T01:14:09.013Z,3.13
2022-08-22T01:17:02.031Z,3.90
2022-08-22T01:20:06.043Z,3.45
2022-08-22T01:22:41.792Z,3.20
2022-08-22T01:26:06.079Z,2.90
2022-08-22T01:29:10.417Z,3.35
2022-08-22T01:32:14.316Z,3.13
2022-08-22T01:34:54.387Z,2.47
2022-08-22T01:38:03.193Z,2.47
2022-08-22T01:40:57.969Z,2.95
2022-08-22T01:43:59.262Z,3.20
2022-08-22T01:46:45.661Z,3.20
2022-08-22T01:49:28.083Z,3.15
2022-08-22T01:54:34.140Z,2.80
2022-08-22T01:57:05.462Z,3.22
2022-08-22T01:59:34.508Z,3.13
2022-08-22T02:02:10.997Z,3.13
2022-08-22T02:04:48.459Z,2.80
2022-08-22T02:07:21.143Z,2.78
2022-08-22T02:10:07.685Z,3.05
2022-08-22T02:13:03.398Z,2.95
2022-08-22T02:15:52.204Z,3.30
2022-08-22T02:18:31.527Z,3.65
2022-08-22T02:21:14.429Z,3.17
2022-08-22T02:23:52.511Z,3.42
2022-08-22T02:26:39.728Z,3.55
2022-08-22T02:29:16.189Z,3.67
2022-08-22T02:31:46.251Z,3.40
2022-08-22T02:35:04.098Z,3.17
2022-08-22T02:37:30.886Z,3.75
2022-08-22T02:40:11.107Z,3.35
2022-08-22T02:43:02.798Z,3.60
2022-08-22T02:45:57.226Z,3.37
2022-08-22T02:48:47.864Z,2.63
2022-08-22T02:51:55.172Z,3.13
2022-08-22T02:54:37.437Z,3.70
2022-08-22T02:57:14.043Z,3.50
2022-08-22T03:00:31.062Z,3.30
2022-08-22T03:02:59.893Z,3.45
2022-08-22T03:05:38.017Z,3.63
2022-08-22T03:08:13.583Z,3.20
2022-08-22T03:11:06.574Z,3.78
2022-08-22T03:14:10.052Z,3.15
2022-08-22T03:17:02.283Z,3.40
2022-08-22T03:20:00.509Z,3.53
2022-08-22T03:22:46.151Z,3.95
2022-08-22T03:25:19.263Z,3.65
2022-08-22T03:28:07.906Z,4.22
2022-08-22T03:31:07.220Z,4.43
2022-08-22T03:33:34.236Z,3.53
2022-08-22T03:36:15.982Z,4.05
2022-08-22T03:39:16.578Z,5.03
2022-08-22T03:41:59.976Z,5.45
2022-08-22T03:44:51.244Z,4.28
2022-08-22T03:47:43.117Z,4.80
2022-08-22T03:50:36.510Z,4.97
2022-08-22T03:53:19.101Z,4.78
2022-08-22T03:56:28.170Z,5.13
2022-08-22T03:59:09.996Z,4.97
2022-08-22T04:02:41.755Z,5.15
2022-08-22T04:05:17.783Z,4.93
2022-08-22T04:08:07.469Z,4.95
2022-08-22T04:10:51.727Z,4.90
2022-08-22T04:13:27.769Z,6.32
2022-08-22T04:16:20.513Z,4.72
2022-08-22T04:19:28.717Z,3.67
2022-08-22T04:22:16.612Z,4.82
2022-08-22T04:24:53.737Z,4.15
2022-08-22T04:27:44.985Z,4.55
2022-08-22T04:30:43.449Z,4.72
2022-08-22T04:33:20.246Z,4.47
2022-08-22T04:35:57.576Z,4.45
2022-08-22T04:38:48.792Z,4.28
2022-08-22T04:41:26.664Z,4.47
2022-08-22T04:44:27.245Z,3.85
2022-08-22T04:47:00.476Z,4.20
2022-08-22T04:49:48.403Z,4.40
2022-08-22T04:52:24.430Z,4.30
2022-08-22T04:55:14.595Z,4.72
2022-08-22T04:58:02.604Z,4.80
2022-08-22T05:00:59.364Z,5.07
2022-08-22T05:03:29.123Z,5.55
2022-08-22T05:05:59.269Z,5.15
2022-08-22T05:08:30.474Z,5.03
2022-08-22T05:10:58.646Z,5.13
2022-08-22T05:13:47.181Z,5.43
2022-08-22T05:16:19.306Z,5.80
2022-08-22T05:18:59.561Z,5.57
2022-08-22T05:21:32.761Z,5.15
2022-08-22T05:24:22.876Z,5.30
2022-08-22T05:26:57.527Z,5.57
2022-08-22T05:29:30.318Z,5.55
2022-08-22T05:32:03.794Z,5.43
2022-08-22T05:34:40.150Z,5.80
2022-08-22T05:37:34.335Z,5.28
2022-08-22T05:40:01.837Z,5.57
2022-08-22T05:42:32.643Z,5.78
2022-08-22T05:45:03.197Z,5.68
2022-08-22T05:47:41.819Z,5.90
2022-08-22T05:50:12.995Z,5.38
2022-08-22T05:52:55.454Z,5.93
2022-08-22T05:55:40.207Z,6.60
2022-08-22T05:58:43.572Z,5.43
2022-08-22T06:01:22.457Z,5.47
2022-08-22T06:04:14.485Z,5.80
2022-08-22T06:07:02.897Z,5.00
2022-08-22T06:09:48.297Z,5.97
2022-08-22T06:12:22.483Z,6.28
2022-08-22T06:15:12.155Z,7.03
2022-08-22T06:17:49.892Z,6.50
2022-08-22T06:20:23.742Z,6.38
2022-08-22T06:22:58.074Z,6.80
2022-08-22T06:25:31.462Z,6.57
2022-08-22T06:28:04.505Z,6.95
2022-08-22T06:30:34.539Z,5.78
2022-08-22T06:33:07.336Z,6.75
2022-08-22T06:36:03.197Z,6.03
2022-08-22T06:38:33.900Z,5.70
2022-08-22T06:41:08.586Z,7.03
2022-08-22T06:43:43.780Z,6.88
2022-08-22T06:46:14.939Z,6.55
2022-08-22T06:48:43.776Z,5.22
2022-08-22T06:51:12.623Z,5.28
2022-08-22T06:53:48.152Z,4.28
2022-08-22T06:56:25.461Z,5.82
2022-08-22T06:58:57.845Z,5.30
2022-08-22T07:01:30.627Z,5.70
2022-08-22T07:04:07.393Z,4.95
2022-08-22T07:06:39.570Z,4.28
2022-08-22T07:11:42.971Z,5.20
2022-08-22T07:14:15.639Z,5.57
2022-08-22T07:16:55.130Z,5.55
2022-08-22T07:19:28.268Z,6.13
2022-08-22T07:21:55.782Z,5.90
2022-08-22T07:24:27.159Z,4.80
2022-08-22T07:26:56.936Z,4.60
2022-08-22T07:29:48.708Z,6.22
2022-08-22T07:32:22.063Z,5.63
2022-08-22T07:35:09.891Z,6.57
2022-08-22T07:37:58.899Z,6.00
2022-08-22T07:40:30.117Z,5.28
2022-08-22T07:43:00.430Z,4.22
2022-08-22T07:45:49.408Z,5.22
2022-08-22T07:48:53.632Z,5.10
2022-08-22T07:51:47.857Z,6.85
2022-08-22T07:54:22.774Z,4.78
2022-08-22T07:57:13.153Z,4.93
2022-08-22T07:59:48.254Z,6.70
2022-08-22T08:02:17.906Z,5.50
2022-08-22T08:04:46.462Z,5.70
2022-08-22T08:07:16.570Z,5.60
2022-08-22T08:09:51.181Z,5.47
2022-08-22T08:12:21.918Z,6.63
2022-08-22T08:14:53.211Z,6.00
2022-08-22T08:17:26.947Z,5.63
2022-08-22T08:19:58.157Z,5.47
2022-08-22T08:22:27.373Z,5.95
2022-08-22T08:24:58.552Z,6.53
2022-08-22T08:27:52.579Z,5.65
2022-08-22T08:30:43.204Z,6.65
2022-08-22T08:33:24.975Z,6.65
2022-08-22T08:36:34.585Z,5.45
2022-08-22T08:39:19.776Z,5.95
2022-08-22T08:42:07.585Z,5.40
2022-08-22T08:44:55.480Z,7.65
2022-08-22T08:47:28.259Z,5.93
2022-08-22T08:50:20.719Z,7.43
2022-08-22T08:55:45.728Z,7.13
2022-08-22T08:58:41.323Z,7.30
2022-08-22T09:01:37.502Z,6.65
2022-08-22T09:04:19.672Z,4.63
2022-08-22T09:06:58.706Z,3.80
2022-08-22T09:10:08.857Z,6.47
2022-08-22T09:13:11.921Z,5.60
2022-08-22T09:16:08.225Z,6.57
2022-08-22T09:18:52.979Z,5.85
2022-08-22T09:21:31.687Z,6.05
2022-08-22T09:24:23.765Z,5.55
2022-08-22T09:27:01.341Z,5.88
2022-08-22T09:32:56.563Z,5.25
2022-08-22T09:35:45.857Z,5.47
2022-08-22T09:38:36.979Z,5.28
2022-08-22T09:41:42.093Z,4.47
2022-08-22T09:44:18.128Z,4.05
2022-08-22T09:46:56.989Z,5.03
2022-08-22T09:49:36.081Z,5.18
2022-08-22T09:52:33.287Z,4.30
2022-08-22T09:55:35.855Z,5.45
2022-08-22T09:58:27.775Z,4.20
2022-08-22T10:01:32.948Z,4.40
2022-08-22T10:04:05.878Z,4.47
2022-08-22T10:06:59.345Z,4.25
2022-08-22T10:09:32.346Z,4.43
2022-08-22T10:12:12.220Z,3.80
2022-08-22T10:14:50.418Z,4.97
2022-08-22T10:17:28.278Z,4.18
2022-08-22T10:20:18.005Z,3.88
2022-08-22T10:23:15.604Z,4.13
2022-08-22T10:25:54.599Z,3.53
2022-08-22T10:28:31.930Z,4.13
2022-08-22T10:31:34.904Z,3.33
2022-08-22T10:34:24.053Z,4.30
2022-08-22T10:37:12.586Z,2.97
2022-08-22T10:40:04.445Z,3.65
2022-08-22T10:42:42.282Z,3.88
2022-08-22T10:45:23.703Z,2.90
2022-08-22T10:48:08.864Z,2.58
2022-08-22T10:50:59.137Z,3.08
2022-08-22T10:53:46.282Z,2.50
2022-08-22T10:56:45.611Z,3.45
2022-08-22T10:59:39.286Z,2.85
2022-08-22T11:02:21.253Z,2.50
2022-08-22T11:05:25.217Z,2.53
2022-08-22T11:08:06.672Z,2.38
2022-08-22T11:10:58.484Z,2.88
2022-08-22T11:13:48.177Z,2.80
2022-08-22T11:16:28.051Z,3.08
2022-08-22T11:19:15.928Z,3.25
2022-08-22T11:22:01.487Z,3.00
2022-08-22T11:24:56.320Z,2.58
2022-08-22T11:28:03.152Z,3.50
2022-08-22T11:31:17.846Z,2.92
2022-08-22T11:34:02.096Z,2.40
2022-08-22T11:36:47.434Z,2.97
2022-08-22T11:39:23.743Z,2.92
2022-08-22T11:42:08.794Z,3.05
2022-08-22T11:44:50.141Z,2.92
2022-08-22T11:47:26.875Z,2.10
2022-08-22T11:50:02.632Z,2.13
2022-08-22T11:52:53.062Z,2.65
2022-08-22T11:55:36.757Z,2.20
2022-08-22T11:58:29.057Z,2.78
2022-08-22T12:01:00.196Z,2.92
2022-08-22T12:04:12.852Z,2.83
2022-08-22T12:06:46.765Z,2.13
2022-08-22T12:09:39.064Z,2.05
2022-08-22T12:15:05.272Z,3.08
2022-08-22T12:22:08.366Z,1.95
2022-08-22T12:25:07.147Z,2.13
2022-08-22T12:27:48.054Z,1.85
2022-08-22T12:30:28.854Z,1.50
2022-08-22T12:33:21.986Z,2.20
2022-08-22T12:36:21.205Z,2.10
2022-08-22T12:39:27.408Z,2.00
2022-08-22T12:42:36.710Z,2.22
2022-08-22T12:45:17.101Z,1.98
2022-08-22T12:48:12.094Z,2.17
2022-08-22T12:51:03.135Z,1.70
2022-08-22T12:54:04.455Z,2.20
2022-08-22T12:57:02.215Z,2.45
2022-08-22T12:59:37.407Z,2.15
2022-08-22T13:02:18.737Z,2.17
2022-08-22T13:07:39.154Z,2.05
2022-08-22T13:10:26.240Z,1.92
2022-08-22T13:12:56.260Z,2.53
2022-08-22T13:15:33.017Z,1.52
2022-08-22T13:18:28.728Z,2.63
2022-08-22T13:20:58.706Z,1.77
2022-08-22T13:23:31.845Z,1.75
2022-08-22T13:26:33.152Z,1.67
2022-08-22T13:29:39.631Z,1.70
2022-08-22T13:32:05.105Z,1.65
2022-08-22T13:34:48.852Z,1.50
2022-08-22T13:37:25.917Z,1.38
2022-08-22T13:39:58.819Z,2.50
2022-08-22T13:42:30.603Z,1.83
2022-08-22T13:45:04.507Z,1.55
2022-08-22T13:47:39.820Z,1.40
2022-08-22T13:50:19.197Z,1.60
2022-08-22T13:53:07.017Z,1.60
2022-08-22T13:55:44.695Z,2.00
2022-08-22T13:58:53.430Z,2.38
2022-08-22T14:01:53.520Z,1.38
2022-08-22T14:04:35.895Z,1.65
2022-08-22T14:07:06.387Z,1.40
2022-08-22T14:09:50.163Z,1.70
2022-08-22T14:12:24.858Z,1.70
2022-08-22T14:15:06.057Z,1.75
2022-08-22T14:17:43.394Z,1.65
2022-08-22T14:20:33.451Z,1.50
2022-08-22T14:23:08.734Z,1.55
2022-08-22T14:25:38.233Z,1.83
2022-08-22T14:28:27.676Z,2.00
2022-08-22T14:31:13.503Z,1.77
2022-08-22T14:33:51.966Z,1.50
2022-08-22T14:36:26.042Z,1.33
2022-08-22T14:38:57.099Z,1.70
2022-08-22T14:41:58.619Z,1.77
2022-08-22T14:44:40.832Z,1.60
2022-08-22T14:47:54.273Z,1.55
2022-08-22T14:50:11.211Z,1.70
2022-08-22T14:52:40.974Z,1.85
2022-08-22T14:55:14.903Z,1.60
2022-08-22T14:57:47.866Z,1.50
2022-08-22T15:00:29.584Z,1.65
2022-08-22T15:03:15.874Z,1.70
2022-08-22T15:06:17.563Z,1.65
2022-08-22T15:08:51.396Z,1.35
2022-08-22T15:11:22.102Z,1.60
2022-08-22T15:14:08.401Z,1.60
2022-08-22T15:17:02.247Z,1.67
2022-08-22T15:19:41.252Z,1.77
2022-08-22T15:22:28.719Z,1.20
2022-08-22T15:25:04.350Z,1.50
2022-08-22T15:27:36.275Z,1.60
2022-08-22T15:30:18.755Z,1.60
2022-08-22T15:32:50.247Z,1.60
2022-08-22T15:35:29.925Z,1.60
2022-08-22T15:38:03.787Z,1.60
2022-08-22T15:40:42.945Z,1.63
2022-08-22T15:43:14.819Z,1.88
2022-08-22T15:45:43.931Z,1.65
2022-08-22T15:48:36.592Z,1.60
2022-08-22T15:51:10.435Z,1.63
2022-08-22T15:53:43.819Z,1.30
2022-08-22T15:56:13.947Z,1.30
2022-08-22T15:58:49.471Z,1.58
2022-08-22T16:01:26.419Z,1.77
2022-08-22T16:04:05.128Z,1.35
2022-08-22T16:06:50.523Z,1.65
2022-08-22T16:09:39.152Z,1.67
2022-08-22T16:12:26.316Z,1.50
2022-08-22T16:14:53.762Z,1.65
2022-08-22T16:17:42.417Z,1.63
2022-08-22T16:20:19.965Z,1.50
2022-08-22T16:22:58.977Z,1.52
2022-08-22T16:25:44.954Z,1.10
2022-08-22T16:28:57.416Z,1.27
2022-08-22T16:31:27.558Z,1.60
2022-08-22T16:34:16.900Z,1.35
2022-08-22T16:36:46.571Z,1.38
2022-08-22T16:39:22.262Z,1.65
2022-08-22T16:41:56.402Z,1.30
2022-08-22T16:44:30.129Z,1.23
2022-08-22T16:47:17.755Z,1.52
2022-08-22T16:49:50.849Z,1.50
2022-08-22T16:52:26.403Z,1.40
2022-08-22T16:55:13.414Z,1.70
2022-08-22T16:58:17.948Z,1.30
2022-08-22T17:01:03.625Z,1.60
2022-08-22T17:03:33.754Z,1.65
2022-08-22T17:06:28.412Z,1.48
2022-08-22T17:09:16.797Z,1.13
2022-08-22T17:12:08.283Z,1.48
2022-08-22T17:15:05.774Z,1.27
2022-08-22T17:17:57.597Z,1.50
2022-08-22T17:20:46.664Z,1.48
2022-08-22T17:23:41.792Z,1.40
2022-08-22T17:26:17.225Z,1.63
2022-08-22T17:29:29.148Z,1.45
2022-08-22T17:32:12.358Z,1.90
2022-08-22T17:34:45.824Z,1.73
2022-08-22T17:37:26.091Z,1.73
2022-08-22T17:40:20.247Z,1.50
2022-08-22T17:43:10.062Z,1.48
2022-08-22T17:46:13.276Z,1.48
2022-08-22T17:49:23.172Z,1.30
2022-08-22T17:52:09.667Z,1.65
2022-08-22T17:54:52.391Z,1.50
2022-08-22T17:57:34.084Z,1.30
2022-08-22T18:00:18.044Z,1.50
2022-08-22T18:03:09.465Z,1.75
2022-08-22T18:05:47.141Z,1.25
2022-08-22T18:08:37.879Z,1.55
2022-08-22T18:11:12.717Z,1.63
2022-08-22T18:14:07.616Z,1.65
2022-08-22T18:16:55.327Z,1.60
2022-08-22T18:19:35.993Z,1.50
2022-08-22T18:22:29.232Z,1.90
2022-08-22T18:25:17.989Z,2.15
2022-08-22T18:27:47.600Z,2.20
2022-08-22T18:30:22.101Z,1.63
2022-08-22T18:33:12.203Z,1.55
2022-08-22T18:35:55.701Z,1.60
2022-08-22T18:38:34.192Z,1.75
2022-08-22T18:41:31.500Z,1.48
2022-08-22T18:43:59.667Z,1.42
2022-08-22T18:46:38.348Z,1.42
2022-08-22T18:49:35.048Z,2.03
2022-08-22T18:52:33.741Z,1.90
2022-08-22T18:55:18.305Z,2.00
2022-08-22T18:58:09.995Z,1.88
2022-08-22T19:00:54.953Z,1.60
2022-08-22T19:03:28.233Z,2.28
2022-08-22T19:06:23.611Z,1.58
2022-08-22T19:09:14.305Z,2.00
2022-08-22T19:12:03.286Z,3.00
2022-08-22T19:14:45.300Z,2.78
2022-08-22T19:20:45.163Z,2.60
2022-08-22T19:23:37.375Z,2.75
2022-08-22T19:26:19.659Z,2.80
2022-08-22T19:28:47.609Z,3.30
2022-08-22T19:31:52.527Z,2.85
2022-08-22T19:34:28.632Z,2.45
2022-08-22T19:37:31.065Z,2.13
2022-08-22T19:40:45.332Z,2.03
2022-08-22T19:43:40.479Z,1.98
2022-08-22T19:46:12.226Z,2.60
2022-08-22T19:48:49.179Z,2.72
2022-08-22T19:51:21.708Z,2.20
2022-08-22T19:54:18.225Z,2.40
2022-08-22T19:57:13.877Z,2.88
2022-08-22T20:00:00.291Z,2.58
2022-08-22T20:02:35.711Z,2.55
2022-08-22T20:05:27.694Z,2.17
2022-08-22T20:08:18.996Z,2.30
2022-08-22T20:11:08.262Z,2.25
2022-08-22T20:13:37.549Z,2.38
2022-08-22T20:16:18.633Z,2.08
2022-08-22T20:19:06.126Z,2.40
2022-08-22T20:21:48.040Z,3.00
2022-08-22T20:24:40.103Z,2.60
2022-08-22T20:27:15.708Z,2.50
2022-08-22T20:29:51.272Z,2.53
2022-08-22T20:32:23.175Z,2.65
2022-08-22T20:34:55.320Z,2.40
2022-08-22T20:37:40.399Z,2.60
2022-08-22T20:40:55.705Z,2.38
2022-08-22T20:43:34.155Z,2.30
2022-08-22T20:46:35.045Z,2.55
2022-08-22T20:49:03.453Z,2.22
2022-08-22T20:51:32.748Z,2.67
2022-08-22T20:54:01.984Z,2.53
2022-08-22T20:56:53.317Z,2.33
2022-08-22T20:59:28.524Z,3.13
2022-08-22T21:02:24.257Z,2.72
2022-08-22T21:05:00.347Z,2.78
2022-08-22T21:07:29.058Z,2.83
2022-08-22T21:10:39.805Z,2.97
2022-08-22T21:13:34.769Z,2.40
2022-08-22T21:16:21.502Z,2.35
2022-08-22T21:18:53.144Z,2.33
2022-08-22T21:21:27.666Z,2.90
2022-08-22T21:24:04.805Z,2.38
2022-08-22T21:26:46.393Z,2.15
2022-08-22T21:29:13.579Z,2.60
2022-08-22T21:31:45.227Z,2.25
2022-08-22T21:34:20.650Z,2.42
2022-08-22T21:36:51.487Z,2.70
2022-08-22T21:39:30.141Z,3.00
2022-08-22T21:42:00.337Z,2.47
2022-08-22T21:44:32.418Z,2.70
2022-08-22T21:47:30.957Z,2.58
2022-08-22T21:50:00.145Z,2.70
2022-08-22T21:52:29.548Z,2.75
2022-08-22T21:55:16.953Z,2.45
2022-08-22T21:57:44.178Z,2.78
2022-08-22T22:00:48.601Z,3.67
2022-08-22T22:03:19.622Z,2.40
2022-08-22T22:05:47.459Z,2.80
2022-08-22T22:08:14.962Z,2.88
2022-08-22T22:10:44.069Z,3.28
2022-08-22T22:13:18.872Z,2.47
2022-08-22T22:15:48.685Z,2.67
2022-08-22T22:18:19.292Z,2.42
2022-08-22T22:20:47.468Z,2.47
2022-08-22T22:23:14.810Z,3.00
2022-08-22T22:25:42.813Z,2.38
2022-08-22T22:28:25.861Z,2.40
2022-08-22T22:30:53.405Z,2.50
2022-08-22T22:33:23.421Z,3.10
2022-08-22T22:35:51.892Z,2.50
2022-08-22T22:38:23.908Z,2.83
2022-08-22T22:40:51.730Z,2.53
2022-08-22T22:43:19.712Z,2.70
2022-08-22T22:45:46.959Z,3.38
2022-08-22T22:48:17.382Z,3.38
2022-08-22T22:50:52.330Z,3.13
2022-08-22T22:53:28.444Z,2.90
2022-08-22T22:56:06.499Z,2.75
2022-08-22T22:58:35.869Z,2.90
2022-08-22T23:01:18.858Z,2.78
2022-08-22T23:03:46.804Z,3.42
2022-08-22T23:06:19.629Z,2.78
2022-08-22T23:08:47.571Z,3.28
2022-08-22T23:11:18.925Z,3.33
2022-08-22T23:13:48.253Z,3.72
2022-08-22T23:16:23.746Z,4.07
2022-08-22T23:18:50.937Z,3.85
2022-08-22T23:21:24.680Z,3.50
2022-08-22T23:23:53.718Z,3.78
2022-08-22T23:26:20.765Z,3.72
2022-08-22T23:28:47.842Z,3.40
2022-08-22T23:31:29.124Z,3.20
2022-08-22T23:33:57.284Z,3.57
2022-08-22T23:36:24.833Z,3.42
2022-08-22T23:38:52.400Z,3.55
2022-08-22T23:41:21.676Z,3.55
2022-08-22T23:43:52.369Z,3.80
2022-08-22T23:46:26.574Z,3.33
2022-08-22T23:48:54.203Z,3.38
2022-08-22T23:51:24.067Z,4.13
2022-08-22T23:53:56.353Z,4.05
2022-08-22T23:56:29.592Z,4.50
2022-08-22T23:58:58.085Z,4.28
